createdAt,value
2022-11-17T00:02:14.732Z,96492.53
2022-11-17T00:07:16.223Z,96491.91
2022-11-17T00:12:36.295Z,96476.38
2022-11-17T00:17:37.710Z,96482.47
2022-11-17T00:22:39.083Z,96469.56
2022-11-17T00:27:41.335Z,96462.38
2022-11-17T00:33:11.691Z,96481.88
2022-11-17T00:38:15.667Z,96467.56
2022-11-17T00:43:17.062Z,96473.25
2022-11-17T00:48:18.425Z,96472.41
2022-11-17T00:53:19.811Z,96470.16
2022-11-17T00:58:21.170Z,96472.00
2022-11-17T01:03:22.540Z,96464.25
2022-11-17T01:08:23.900Z,96454.56
2022-11-17T01:13:25.253Z,96461.28
2022-11-17T01:18:27.607Z,96463.53
2022-11-17T01:23:28.977Z,96463.53
2022-11-17T01:28:30.703Z,96448.44
2022-11-17T01:33:32.264Z,96455.97
2022-11-17T01:38:34.048Z,96454.31
2022-11-17T01:43:54.042Z,96442.91
2022-11-17T01:49:02.736Z,96445.53
2022-11-17T01:54:04.486Z,96445.75
2022-11-17T01:59:14.142Z,96451.03
2022-11-17T02:04:15.543Z,96432.50
2022-11-17T02:09:17.119Z,96427.38
2022-11-17T02:14:18.520Z,96419.63
2022-11-17T02:19:21.203Z,96415.91
2022-11-17T02:24:41.066Z,96419.75
2022-11-17T02:29:52.493Z,96418.56
2022-11-17T02:35:09.073Z,96422.66
2022-11-17T02:40:19.804Z,96409.72
2022-11-17T02:45:27.880Z,96420.69
2022-11-17T02:50:29.928Z,96416.16
2022-11-17T02:55:35.155Z,96413.69
2022-11-17T03:00:44.001Z,96405.94
2022-11-17T03:06:00.280Z,96399.81
2022-11-17T03:11:05.223Z,96405.28
2022-11-17T03:16:18.603Z,96411.19
2022-11-17T03:21:40.732Z,96393.56
2022-11-17T03:26:48.538Z,96387.81
2022-11-17T03:31:55.556Z,96387.81
2022-11-17T03:37:00.890Z,96391.88
2022-11-17T03:42:09.781Z,96385.66
2022-11-17T03:47:13.126Z,96397.28
2022-11-17T03:52:14.686Z,96397.91
2022-11-17T03:57:26.470Z,96395.06
2022-11-17T04:02:28.152Z,96392.25
2022-11-17T04:07:29.593Z,96388.94
2022-11-17T04:12:49.352Z,96388.94
2022-11-17T04:17:50.899Z,96390.72
2022-11-17T04:23:07.448Z,96388.06
2022-11-17T04:28:27.233Z,96383.69
2022-11-17T04:33:28.629Z,96367.38
2022-11-17T04:38:30.230Z,96361.25
2022-11-17T04:43:31.749Z,96360.44
2022-11-17T04:48:33.169Z,96362.28
2022-11-17T04:53:35.074Z,96371.19
2022-11-17T04:58:36.851Z,96362.50
2022-11-17T05:03:55.526Z,96353.81
2022-11-17T05:08:56.900Z,96340.41
2022-11-17T05:13:58.471Z,96336.09
2022-11-17T05:18:59.965Z,96351.19
2022-11-17T05:24:01.594Z,96338.97
2022-11-17T05:29:05.047Z,96341.59
2022-11-17T05:34:09.105Z,96330.19
2022-11-17T05:39:10.634Z,96325.47
2022-11-17T05:44:12.014Z,96335.97
2022-11-17T05:49:13.428Z,96341.03
2022-11-17T05:54:14.782Z,96347.13
2022-11-17T05:59:32.701Z,96336.94
2022-11-17T06:04:34.631Z,96337.09
2022-11-17T06:09:40.076Z,96329.16
2022-11-17T06:14:41.621Z,96327.16
2022-11-17T06:19:49.007Z,96339.75
2022-11-17T06:24:50.601Z,96339.00
2022-11-17T06:29:52.785Z,96332.53
2022-11-17T06:34:56.375Z,96337.44
2022-11-17T06:39:57.969Z,96335.97
2022-11-17T06:44:59.326Z,96323.19
2022-11-17T06:50:00.720Z,96326.91
2022-11-17T06:55:02.124Z,96315.94
2022-11-17T07:00:06.007Z,96310.66
2022-11-17T07:05:07.730Z,96315.41
2022-11-17T07:10:09.453Z,96328.63
2022-11-17T07:15:11.204Z,96319.25
2022-11-17T07:20:13.507Z,96311.91
2022-11-17T07:25:21.098Z,96305.34
2022-11-17T07:30:23.720Z,96299.47
2022-11-17T07:35:25.109Z,96310.47
2022-11-17T07:40:27.246Z,96309.47
2022-11-17T07:45:31.870Z,96303.41
2022-11-17T07:50:35.050Z,96312.38
2022-11-17T07:55:36.426Z,96314.00
2022-11-17T08:00:37.897Z,96313.63
2022-11-17T08:05:43.407Z,96315.69
2022-11-17T08:10:45.707Z,96312.66
2022-11-17T08:15:47.174Z,96310.47
2022-11-17T08:20:48.574Z,96306.69
2022-11-17T08:25:49.954Z,96310.81
2022-11-17T08:30:51.419Z,96304.56
2022-11-17T08:35:52.787Z,96298.13
2022-11-17T08:40:58.783Z,96292.44
2022-11-17T08:46:00.182Z,96306.31
2022-11-17T08:51:06.568Z,96298.97
2022-11-17T08:56:12.448Z,96301.88
2022-11-17T09:01:16.529Z,96320.66
2022-11-17T09:06:18.111Z,96333.75
2022-11-17T09:11:20.085Z,96328.31
2022-11-17T09:16:23.861Z,96325.09
2022-11-17T09:21:27.154Z,96320.88
2022-11-17T09:26:28.669Z,96314.59
2022-11-17T09:31:30.475Z,96314.00
2022-11-17T09:36:32.063Z,96319.94
2022-11-17T09:41:44.008Z,96319.13
2022-11-17T09:47:00.748Z,96335.47
2022-11-17T09:52:10.642Z,96325.88
2022-11-17T09:57:25.323Z,96314.88
2022-11-17T10:02:26.835Z,96315.50
2022-11-17T10:07:31.507Z,96303.06
2022-11-17T10:12:38.742Z,96293.31
2022-11-17T10:17:40.131Z,96304.72
2022-11-17T10:22:42.071Z,96290.66
2022-11-17T10:27:51.991Z,96272.28
2022-11-17T10:32:58.755Z,96255.38
2022-11-17T10:38:03.613Z,96248.22
2022-11-17T10:43:13.860Z,96251.09
2022-11-17T10:48:31.226Z,96256.41
2022-11-17T10:53:42.818Z,96253.31
2022-11-17T10:59:23.894Z,96243.09
2022-11-17T11:04:33.037Z,96249.84
2022-11-17T11:09:39.145Z,96262.72
2022-11-17T11:14:48.785Z,96242.34
2022-11-17T11:19:52.600Z,96231.94
2022-11-17T11:25:03.132Z,96239.47
2022-11-17T11:30:16.549Z,96230.94
2022-11-17T11:36:04.392Z,96229.66
2022-11-17T11:41:35.676Z,96221.13
2022-11-17T11:46:49.303Z,96211.31
2022-11-17T11:51:51.941Z,96214.56
2022-11-17T11:56:53.599Z,96223.53
2022-11-17T12:02:07.002Z,96219.84
2022-11-17T12:07:56.684Z,96194.75
2022-11-17T12:12:59.258Z,96198.84
2022-11-17T12:18:27.098Z,96194.53
2022-11-17T12:23:41.113Z,96194.91
2022-11-17T12:28:42.548Z,96208.78
2022-11-17T12:33:53.065Z,96204.28
2022-11-17T12:38:55.522Z,96193.84
2022-11-17T12:44:31.723Z,96185.69
2022-11-17T12:49:54.771Z,96182.22
2022-11-17T12:55:05.620Z,96181.41
2022-11-17T13:00:29.376Z,96183.47
2022-11-17T13:05:30.762Z,96183.25
2022-11-17T13:10:33.206Z,96186.72
2022-11-17T13:15:34.676Z,96178.19
2022-11-17T13:20:39.321Z,96189.03
2022-11-17T13:25:40.848Z,96179.41
2022-11-17T13:30:46.308Z,96178.59
2022-11-17T13:35:47.756Z,96179.44
2022-11-17T13:40:51.615Z,96169.22
2022-11-17T13:45:54.307Z,96163.94
2022-11-17T13:50:55.696Z,96167.63
2022-11-17T13:55:57.081Z,96171.69
2022-11-17T14:00:59.048Z,96167.63
2022-11-17T14:06:00.665Z,96163.72
2022-11-17T14:11:21.199Z,96161.88
2022-11-17T14:16:28.833Z,96167.78
2022-11-17T14:21:31.822Z,96168.78
2022-11-17T14:26:33.524Z,96181.47
2022-11-17T14:31:35.043Z,96164.91
2022-11-17T14:36:39.135Z,96167.16
2022-11-17T14:41:41.880Z,96162.84
2022-11-17T14:46:43.313Z,96170.41
2022-11-17T14:51:49.296Z,96163.69
2022-11-17T14:56:50.895Z,96169.19
2022-11-17T15:01:52.343Z,96173.03
2022-11-17T15:06:53.788Z,96166.31
2022-11-17T15:11:55.267Z,96175.09
2022-11-17T15:16:57.059Z,96177.91
2022-11-17T15:21:58.486Z,96184.66
2022-11-17T15:26:59.946Z,96181.38
2022-11-17T15:32:01.338Z,96197.47
2022-11-17T15:37:03.035Z,96185.84
2022-11-17T15:42:04.530Z,96187.84
2022-11-17T15:47:06.373Z,96183.38
2022-11-17T15:52:07.850Z,96172.13
2022-11-17T15:57:09.267Z,96172.97
2022-11-17T16:02:10.739Z,96171.94
2022-11-17T16:07:12.180Z,96177.22
2022-11-17T16:12:13.763Z,96171.53
2022-11-17T16:17:15.233Z,96179.28
2022-11-17T16:22:16.679Z,96181.53
2022-11-17T16:27:18.059Z,96175.22
2022-11-17T16:32:19.464Z,96180.13
2022-11-17T16:37:20.896Z,96172.78
2022-11-17T16:42:22.332Z,96165.44
2022-11-17T16:47:23.835Z,96160.16
2022-11-17T16:52:25.298Z,96152.59
2022-11-17T16:57:30.083Z,96146.72
2022-11-17T17:02:33.004Z,96149.75
2022-11-17T17:07:34.363Z,96156.88
2022-11-17T17:12:35.872Z,96159.34
2022-11-17T17:17:37.514Z,96156.06
2022-11-17T17:22:38.912Z,96164.41
2022-11-17T17:27:40.311Z,96158.13
2022-11-17T17:32:41.686Z,96158.53
2022-11-17T17:37:43.074Z,96165.06
2022-11-17T17:42:44.461Z,96162.22
2022-11-17T17:47:45.846Z,96171.59
2022-11-17T17:52:47.234Z,96167.94
2022-11-17T17:57:48.594Z,96169.34
2022-11-17T18:02:50.030Z,96167.53
2022-11-17T18:07:51.546Z,96167.13
2022-11-17T18:12:53.006Z,96175.25
2022-11-17T18:17:54.428Z,96176.88
2022-11-17T18:22:56.504Z,96160.53
2022-11-17T18:27:57.914Z,96167.06
2022-11-17T18:33:02.949Z,96171.13
2022-11-17T18:38:04.702Z,96164.53
2022-11-17T18:43:06.187Z,96160.81
2022-11-17T18:48:07.866Z,96154.84
2022-11-17T18:53:10.058Z,96152.63
2022-11-17T18:58:11.477Z,96156.28
2022-11-17T19:03:12.864Z,96164.84
2022-11-17T19:08:14.839Z,96167.72
2022-11-17T19:13:16.398Z,96162.25
2022-11-17T19:18:18.607Z,96156.16
2022-11-17T19:23:20.057Z,96155.13
2022-11-17T19:28:21.784Z,96162.69
2022-11-17T19:33:23.234Z,96169.84
2022-11-17T19:38:24.765Z,96167.41
2022-11-17T19:43:26.213Z,96172.06
2022-11-17T19:48:29.487Z,96168.59
2022-11-17T19:53:30.955Z,96173.47
2022-11-17T19:58:32.511Z,96172.03
2022-11-17T20:03:34.437Z,96175.91
2022-11-17T20:08:36.060Z,96174.66
2022-11-17T20:13:38.555Z,96177.72
2022-11-17T20:18:41.579Z,96183.00
2022-11-17T20:23:43.555Z,96189.31
2022-11-17T20:28:45.750Z,96189.13
2022-11-17T20:33:48.291Z,96183.44
2022-11-17T20:38:54.031Z,96173.06
2022-11-17T20:43:57.410Z,96166.13
2022-11-17T20:48:58.857Z,96171.50
2022-11-17T20:54:00.364Z,96168.66
2022-11-17T20:59:01.887Z,96166.63
2022-11-17T21:04:03.595Z,96158.47
2022-11-17T21:09:05.023Z,96174.78
2022-11-17T21:14:08.127Z,96178.88
2022-11-17T21:19:09.757Z,96188.50
2022-11-17T21:24:11.475Z,96186.03
2022-11-17T21:29:12.927Z,96184.19
2022-11-17T21:34:16.599Z,96170.75
2022-11-17T21:39:19.627Z,96172.56
2022-11-17T21:44:21.759Z,96165.84
2022-11-17T21:49:23.176Z,96164.22
2022-11-17T21:54:24.580Z,96172.38
2022-11-17T21:59:26.008Z,96187.06
2022-11-17T22:04:27.424Z,96188.28
2022-11-17T22:09:28.885Z,96194.63
2022-11-17T22:14:30.412Z,96200.56
2022-11-17T22:19:33.586Z,96209.50
2022-11-17T22:24:35.040Z,96198.91
2022-11-17T22:29:36.548Z,96196.88
2022-11-17T22:34:37.927Z,96196.25
2022-11-17T22:39:39.441Z,96191.94
2022-11-17T22:44:41.225Z,96196.22
2022-11-17T22:49:42.642Z,96211.88
2022-11-17T22:54:44.339Z,96207.75
2022-11-17T22:59:45.823Z,96203.63
2022-11-17T23:04:47.228Z,96209.16
2022-11-17T23:09:48.616Z,96196.53
2022-11-17T23:14:50.044Z,96191.81
2022-11-17T23:19:51.476Z,96210.63
2022-11-17T23:24:52.876Z,96229.03
2022-11-17T23:29:54.480Z,96220.88
2022-11-17T23:34:56.043Z,96220.91
2022-11-17T23:39:57.426Z,96227.88
2022-11-17T23:44:58.841Z,96227.28
2022-11-17T23:50:00.266Z,96225.03
2022-11-17T23:55:01.910Z,96223.03
